F/V P'tite Fleur Ble — FHZT — position and weather

sailwx.info

Track history (hours):
 
Tides and Currents Weather Stations Pressure Air Temp Water Temp Dewpoint Dewpoint Depression Visibility Wind Speed Wind Dir Waves Ship Positions

F/V P'tite Fleur Ble

Last reported at 2017-Nov-01 01:36 UTC. Time now 2017-Nov-19 05:04 UTC.
Position N 48°40' W 004°14'.
Warning: this ship's position is 18 days out of date.

Length 13 m.

Type: Fishing. MMSI: 228287000.

Date/timePositionNaut miles runAvg speedWind from/ knotsBaromVisibWave heightAir tempDewpointWater temp
2017-Nov-01 01:36N 48°40' W 004°14'0 0.0
2017-Oct-31 11:12N 48°40' W 004°14'3 8.2
2017-Oct-31 10:53N 48°42' W 004°17'3 8.0
2017-Oct-31 10:30N 48°45' W 004°20'4 7.8
2017-Oct-31 09:58N 48°48' W 004°24'4 7.6
2017-Oct-31 09:27N 48°51' W 004°28'4 7.4
2017-Oct-31 08:51N 48°54' W 004°33'2 5.9
2017-Oct-31 08:28N 48°56' W 004°35'1 1.6
2017-Oct-31 07:50N 48°56' W 004°33'1 1.6
2017-Oct-31 07:07N 48°57' W 004°32'0 1.6
2017-Oct-31 06:58N 48°57' W 004°32'1 1.7
2017-Oct-31 06:11N 48°58' W 004°30'0 1.0
2017-Oct-31 05:50N 48°58' W 004°30'1 1.3
2017-Oct-31 05:19N 48°59' W 004°29'21 4.1
2017-Oct-31 00:08N 48°40' W 004°14'1 0.1
2017-Oct-30 10:35N 48°41' W 004°15'2 7.9
2017-Oct-30 10:22N 48°42' W 004°17'3 7.7
2017-Oct-30 10:00N 48°44' W 004°19'5 7.6
2017-Oct-30 09:25N 48°47' W 004°24'3 7.4
2017-Oct-30 08:58N 48°50' W 004°27'4 7.3
2017-Oct-30 08:28N 48°52' W 004°31'1 2.9
2017-Oct-30 07:58N 48°54' W 004°32'1 1.4
2017-Oct-30 07:25N 48°54' W 004°31'1 1.4
2017-Oct-30 06:50N 48°55' W 004°30'1 1.5
2017-Oct-30 06:28N 48°55' W 004°30'1 1.4
2017-Oct-30 05:58N 48°56' W 004°29'1 1.0
2017-Oct-30 05:06N 48°56' W 004°28'1 1.4
2017-Oct-30 04:44N 48°57' W 004°27'0 1.4
2017-Oct-30 04:29N 48°57' W 004°27'18 2.9
2017-Oct-29 22:22N 48°41' W 004°15'1 0.0
2017-Oct-28 07:15N 48°40' W 004°14'3 7.9
2017-Oct-28 06:53N 48°42' W 004°17'4 7.9
2017-Oct-28 06:24N 48°45' W 004°20'3 7.9
2017-Oct-28 05:58N 48°48' W 004°23'4 7.8
2017-Oct-28 05:29N 48°51' W 004°27'4 7.6
2017-Oct-28 04:56N 48°55' W 004°30'3 5.2
2017-Oct-28 04:21N 48°53' W 004°34'1 2.0
2017-Oct-28 03:57N 48°54' W 004°36'1 1.4
2017-Oct-28 03:29N 48°54' W 004°35'1 1.6
2017-Oct-28 02:32N 48°55' W 004°33'1 1.6
2017-Oct-28 01:45N 48°56' W 004°32'4 3.6
2017-Oct-28 00:46N 48°57' W 004°27'2 5.8
2017-Oct-28 00:30N 48°58' W 004°25'3 3.6
2017-Oct-27 23:33N 48°55' W 004°28'1 5.4
2017-Oct-27 23:17N 48°54' W 004°29'3 5.6
2017-Oct-27 22:48N 48°52' W 004°33'2 5.7
2017-Oct-27 22:27N 48°51' W 004°35'2 3.1
2017-Oct-27 21:57N 48°52' W 004°33'2 5.0
2017-Oct-27 21:30N 48°53' W 004°30'3 4.1
2017-Oct-27 20:51N 48°55' W 004°27'5 5.9
2017-Oct-27 20:00N 48°52' W 004°33'1 1.3
2017-Oct-27 19:28N 48°52' W 004°34'7 1.6
2017-Oct-27 14:51N 48°58' W 004°28'20 1.2
2017-Oct-26 22:23N 48°40' W 004°14'1 0.0
2017-Oct-25 18:34N 48°41' W 004°15'1 8.4
2017-Oct-25 18:28N 48°41' W 004°16'5 8.6
2017-Oct-25 17:52N 48°45' W 004°21'5 8.3
2017-Oct-25 17:19N 48°49' W 004°26'3 8.1
2017-Oct-25 17:00N 48°51' W 004°28'4 7.7
2017-Oct-25 16:28N 48°54' W 004°32'13 2.2
2017-Oct-25 10:47N 48°45' W 004°18'3 6.0
2017-Oct-25 10:17N 48°43' W 004°16'3 6.1
2017-Oct-25 09:46N 48°40' W 004°14'1 0.2
2017-Oct-25 05:47N 48°40' W 004°13'0 1.2
2017-Oct-25 05:25N 48°40' W 004°14'3 6.1
2017-Oct-25 04:59N 48°42' W 004°16'3 5.5
2017-Oct-25 04:29N 48°44' W 004°19'2 4.5
2017-Oct-25 04:00N 48°44' W 004°16'1 1.3
2017-Oct-25 03:13N 48°43' W 004°15'2 5.8
2017-Oct-25 02:50N 48°43' W 004°18'1 3.2
2017-Oct-25 02:29N 48°43' W 004°17'4 2.8
2017-Oct-25 01:09N 48°46' W 004°20'3 5.1
2017-Oct-25 00:39N 48°49' W 004°20'1 5.4
2017-Oct-25 00:26N 48°50' W 004°21'5 5.3
2017-Oct-24 23:34N 48°54' W 004°22'5 3.0
2017-Oct-24 21:44N 48°58' W 004°28'8 5.6
2017-Oct-24 20:17N 48°53' W 004°38'1 2.0
2017-Oct-24 19:50N 48°53' W 004°37'9 1.1
2017-Oct-24 12:02N 48°58' W 004°26'10 5.3
2017-Oct-24 10:05N 48°48' W 004°23'2 5.5
2017-Oct-24 09:45N 48°46' W 004°22'  
Track history (hours):
 
Tides and Currents Weather Stations Pressure Air Temp Water Temp Dewpoint Dewpoint Depression Visibility Wind Speed Wind Dir Waves Ship Positions

F/V P'tite Fleur Ble

Last reported at 2017-Nov-01 01:36 UTC. Time now 2017-Nov-19 05:04 UTC.
Position N 48°40' W 004°14'.
Warning: this ship's position is 18 days out of date.

Length 13 m.

Type: Fishing. MMSI: 228287000.

Date/timePositionNaut miles runAvg speedWind from/ knotsBaromVisibWave heightAir tempDewpointWater temp
2017-Nov-01 01:36N 48°40' W 004°14'0 0.0
2017-Oct-31 11:12N 48°40' W 004°14'3 8.2
2017-Oct-31 10:53N 48°42' W 004°17'3 8.0
2017-Oct-31 10:30N 48°45' W 004°20'4 7.8
2017-Oct-31 09:58N 48°48' W 004°24'4 7.6
2017-Oct-31 09:27N 48°51' W 004°28'4 7.4
2017-Oct-31 08:51N 48°54' W 004°33'2 5.9
2017-Oct-31 08:28N 48°56' W 004°35'1 1.6
2017-Oct-31 07:50N 48°56' W 004°33'1 1.6
2017-Oct-31 07:07N 48°57' W 004°32'0 1.6
2017-Oct-31 06:58N 48°57' W 004°32'1 1.7
2017-Oct-31 06:11N 48°58' W 004°30'0 1.0
2017-Oct-31 05:50N 48°58' W 004°30'1 1.3
2017-Oct-31 05:19N 48°59' W 004°29'21 4.1
2017-Oct-31 00:08N 48°40' W 004°14'1 0.1
2017-Oct-30 10:35N 48°41' W 004°15'2 7.9
2017-Oct-30 10:22N 48°42' W 004°17'3 7.7
2017-Oct-30 10:00N 48°44' W 004°19'5 7.6
2017-Oct-30 09:25N 48°47' W 004°24'3 7.4
2017-Oct-30 08:58N 48°50' W 004°27'4 7.3
2017-Oct-30 08:28N 48°52' W 004°31'1 2.9
2017-Oct-30 07:58N 48°54' W 004°32'1 1.4
2017-Oct-30 07:25N 48°54' W 004°31'1 1.4
2017-Oct-30 06:50N 48°55' W 004°30'1 1.5
2017-Oct-30 06:28N 48°55' W 004°30'1 1.4
2017-Oct-30 05:58N 48°56' W 004°29'1 1.0
2017-Oct-30 05:06N 48°56' W 004°28'1 1.4
2017-Oct-30 04:44N 48°57' W 004°27'0 1.4
2017-Oct-30 04:29N 48°57' W 004°27'18 2.9
2017-Oct-29 22:22N 48°41' W 004°15'1 0.0
2017-Oct-28 07:15N 48°40' W 004°14'3 7.9
2017-Oct-28 06:53N 48°42' W 004°17'4 7.9
2017-Oct-28 06:24N 48°45' W 004°20'3 7.9
2017-Oct-28 05:58N 48°48' W 004°23'4 7.8
2017-Oct-28 05:29N 48°51' W 004°27'4 7.6
2017-Oct-28 04:56N 48°55' W 004°30'3 5.2
2017-Oct-28 04:21N 48°53' W 004°34'1 2.0
2017-Oct-28 03:57N 48°54' W 004°36'1 1.4
2017-Oct-28 03:29N 48°54' W 004°35'1 1.6
2017-Oct-28 02:32N 48°55' W 004°33'1 1.6
2017-Oct-28 01:45N 48°56' W 004°32'4 3.6
2017-Oct-28 00:46N 48°57' W 004°27'2 5.8
2017-Oct-28 00:30N 48°58' W 004°25'3 3.6
2017-Oct-27 23:33N 48°55' W 004°28'1 5.4
2017-Oct-27 23:17N 48°54' W 004°29'3 5.6
2017-Oct-27 22:48N 48°52' W 004°33'2 5.7
2017-Oct-27 22:27N 48°51' W 004°35'2 3.1
2017-Oct-27 21:57N 48°52' W 004°33'2 5.0
2017-Oct-27 21:30N 48°53' W 004°30'3 4.1
2017-Oct-27 20:51N 48°55' W 004°27'5 5.9
2017-Oct-27 20:00N 48°52' W 004°33'1 1.3
2017-Oct-27 19:28N 48°52' W 004°34'7 1.6
2017-Oct-27 14:51N 48°58' W 004°28'20 1.2
2017-Oct-26 22:23N 48°40' W 004°14'1 0.0
2017-Oct-25 18:34N 48°41' W 004°15'1 8.4
2017-Oct-25 18:28N 48°41' W 004°16'5 8.6
2017-Oct-25 17:52N 48°45' W 004°21'5 8.3
2017-Oct-25 17:19N 48°49' W 004°26'3 8.1
2017-Oct-25 17:00N 48°51' W 004°28'4 7.7
2017-Oct-25 16:28N 48°54' W 004°32'13 2.2
2017-Oct-25 10:47N 48°45' W 004°18'3 6.0
2017-Oct-25 10:17N 48°43' W 004°16'3 6.1
2017-Oct-25 09:46N 48°40' W 004°14'1 0.2
2017-Oct-25 05:47N 48°40' W 004°13'0 1.2
2017-Oct-25 05:25N 48°40' W 004°14'3 6.1
2017-Oct-25 04:59N 48°42' W 004°16'3 5.5
2017-Oct-25 04:29N 48°44' W 004°19'2 4.5
2017-Oct-25 04:00N 48°44' W 004°16'1 1.3
2017-Oct-25 03:13N 48°43' W 004°15'2 5.8
2017-Oct-25 02:50N 48°43' W 004°18'1 3.2
2017-Oct-25 02:29N 48°43' W 004°17'4 2.8
2017-Oct-25 01:09N 48°46' W 004°20'3 5.1
2017-Oct-25 00:39N 48°49' W 004°20'1 5.4
2017-Oct-25 00:26N 48°50' W 004°21'5 5.3
2017-Oct-24 23:34N 48°54' W 004°22'5 3.0
2017-Oct-24 21:44N 48°58' W 004°28'8 5.6
2017-Oct-24 20:17N 48°53' W 004°38'1 2.0
2017-Oct-24 19:50N 48°53' W 004°37'9 1.1
2017-Oct-24 12:02N 48°58' W 004°26'10 5.3
2017-Oct-24 10:05N 48°48' W 004°23'2 5.5
2017-Oct-24 09:45N 48°46' W 004°22'  

Dump ship's entire track history